createdAt,value
2023-05-22T00:00:07.378Z,89.00
2023-05-22T00:02:38.647Z,89.30
2023-05-22T00:05:07.571Z,89.40
2023-05-22T00:07:35.361Z,89.10
2023-05-22T00:10:03.192Z,89.30
2023-05-22T00:12:32.310Z,90.10
2023-05-22T00:15:00.228Z,90.80
2023-05-22T00:17:30.734Z,90.60
2023-05-22T00:20:03.752Z,90.70
2023-05-22T00:22:35.245Z,91.10
2023-05-22T00:25:03.213Z,91.30
2023-05-22T00:27:32.798Z,91.50
2023-05-22T00:30:01.133Z,91.70
2023-05-22T00:32:29.233Z,92.70
2023-05-22T00:34:57.079Z,93.10
2023-05-22T00:37:25.460Z,94.30
2023-05-22T00:39:53.266Z,94.90
2023-05-22T00:42:21.219Z,95.10
2023-05-22T00:44:50.462Z,95.60
2023-05-22T00:47:18.271Z,95.80
2023-05-22T00:49:47.374Z,96.60
2023-05-22T00:52:17.569Z,97.10
2023-05-22T00:54:45.480Z,97.60
2023-05-22T00:57:14.177Z,98.00
2023-05-22T00:59:42.088Z,98.10
2023-05-22T01:02:11.253Z,97.60
2023-05-22T01:04:39.224Z,97.30
2023-05-22T01:07:07.391Z,97.30
2023-05-22T01:09:35.193Z,97.20
2023-05-22T01:12:09.908Z,98.30
2023-05-22T01:14:46.829Z,98.80
2023-05-22T01:17:23.423Z,99.40
2023-05-22T01:20:06.731Z,99.90
2023-05-22T01:23:04.345Z,99.80
2023-05-22T01:25:57.636Z,99.50
2023-05-22T01:28:41.145Z,98.90
2023-05-22T01:31:12.583Z,98.60
2023-05-22T01:33:47.539Z,98.10
2023-05-22T01:36:20.028Z,99.10
2023-05-22T01:38:48.238Z,99.00
2023-05-22T01:41:17.155Z,98.70
2023-05-22T01:43:46.396Z,98.90
2023-05-22T01:46:15.612Z,98.60
2023-05-22T01:48:43.431Z,97.80
2023-05-22T01:51:17.238Z,97.90
2023-05-22T01:53:52.833Z,98.20
2023-05-22T01:56:30.535Z,98.70
2023-05-22T01:59:05.232Z,99.80
2023-05-22T02:01:37.488Z,99.90
2023-05-22T02:04:06.905Z,99.90
2023-05-22T02:06:35.031Z,99.90
2023-05-22T02:09:03.857Z,99.90
2023-05-22T02:11:35.767Z,99.90
2023-05-22T02:14:03.842Z,99.90
2023-05-22T02:16:31.855Z,99.90
2023-05-22T02:19:06.498Z,99.90
2023-05-22T02:21:35.126Z,99.90
2023-05-22T02:24:03.513Z,99.90
2023-05-22T02:26:31.326Z,99.90
2023-05-22T02:28:59.538Z,99.90
2023-05-22T02:31:27.402Z,99.90
2023-05-22T02:33:55.242Z,99.90
2023-05-22T02:36:26.173Z,99.90
2023-05-22T02:38:55.359Z,99.90
2023-05-22T02:41:23.582Z,99.90
2023-05-22T02:43:51.312Z,99.90
2023-05-22T02:46:19.226Z,99.90
2023-05-22T02:48:47.061Z,99.90
2023-05-22T02:51:14.919Z,99.90
2023-05-22T02:53:44.018Z,99.90
2023-05-22T02:56:12.126Z,99.90
2023-05-22T02:58:40.303Z,99.90
2023-05-22T03:01:09.005Z,99.90
2023-05-22T03:03:37.268Z,99.90
2023-05-22T03:06:06.169Z,99.90
2023-05-22T03:08:34.768Z,99.90
2023-05-22T03:11:03.922Z,99.90
2023-05-22T03:13:31.712Z,99.90
2023-05-22T03:16:00.038Z,99.90
2023-05-22T03:18:27.974Z,99.90
2023-05-22T03:20:55.741Z,99.90
2023-05-22T03:23:25.110Z,99.90
2023-05-22T03:25:52.935Z,99.90
2023-05-22T03:28:22.124Z,99.90
2023-05-22T03:30:49.999Z,99.90
2023-05-22T03:33:17.817Z,99.90
2023-05-22T03:35:45.834Z,99.90
2023-05-22T03:38:13.599Z,99.90
2023-05-22T03:40:41.577Z,99.90
2023-05-22T03:43:09.551Z,99.90
2023-05-22T03:45:38.687Z,99.90
2023-05-22T03:48:06.746Z,99.90
2023-05-22T03:50:34.602Z,99.90
2023-05-22T03:53:02.378Z,99.90
2023-05-22T03:55:30.764Z,99.90
2023-05-22T03:57:58.691Z,99.90
2023-05-22T04:00:27.152Z,99.90
2023-05-22T04:02:58.702Z,99.90
2023-05-22T04:05:26.817Z,99.90
2023-05-22T04:07:54.636Z,99.90
2023-05-22T04:10:23.572Z,99.90
2023-05-22T04:12:51.672Z,99.90
2023-05-22T04:15:19.444Z,99.90
2023-05-22T04:17:47.346Z,99.90
2023-05-22T04:20:16.756Z,99.90
2023-05-22T04:22:45.841Z,99.90
2023-05-22T04:25:13.729Z,99.90
2023-05-22T04:27:41.508Z,99.90
2023-05-22T04:30:10.438Z,99.90
2023-05-22T04:32:38.280Z,99.90
2023-05-22T04:35:06.851Z,99.90
2023-05-22T04:37:36.298Z,99.90
2023-05-22T04:40:07.607Z,99.90
2023-05-22T04:42:35.535Z,99.90
2023-05-22T04:45:03.270Z,99.90
2023-05-22T04:47:32.464Z,99.90
2023-05-22T04:50:02.416Z,99.90
2023-05-22T04:52:30.344Z,99.90
2023-05-22T04:55:00.865Z,99.90
2023-05-22T04:57:29.715Z,99.90
2023-05-22T04:59:58.118Z,99.90
2023-05-22T05:02:25.900Z,99.90
2023-05-22T05:04:53.677Z,99.90
2023-05-22T05:07:21.620Z,99.90
2023-05-22T05:09:49.552Z,99.90
2023-05-22T05:12:18.735Z,99.60
2023-05-22T05:14:46.596Z,99.10
2023-05-22T05:17:14.545Z,98.80
2023-05-22T05:19:42.343Z,98.50
2023-05-22T05:22:10.109Z,98.50
2023-05-22T05:24:37.910Z,98.40
2023-05-22T05:27:05.942Z,98.20
2023-05-22T05:29:35.052Z,98.30
2023-05-22T05:32:03.905Z,97.80
2023-05-22T05:34:31.741Z,98.00
2023-05-22T05:36:59.555Z,97.50
2023-05-22T05:39:27.345Z,97.40
2023-05-22T05:41:55.243Z,97.10
2023-05-22T05:44:23.027Z,96.50
2023-05-22T05:46:52.410Z,96.30
2023-05-22T05:49:20.704Z,96.60
2023-05-22T05:51:48.610Z,96.70
2023-05-22T05:54:16.620Z,96.70
2023-05-22T05:56:44.446Z,96.00
2023-05-22T05:59:12.269Z,95.10
2023-05-22T06:01:42.450Z,94.40
2023-05-22T06:04:11.567Z,94.00
2023-05-22T06:06:39.590Z,93.80
2023-05-22T06:09:07.801Z,93.30
2023-05-22T06:11:35.715Z,92.80
2023-05-22T06:14:04.061Z,92.00
2023-05-22T06:16:32.135Z,91.10
2023-05-22T06:19:00.756Z,90.20
2023-05-22T06:21:29.906Z,87.00
2023-05-22T06:23:58.598Z,83.40
2023-05-22T06:26:26.730Z,81.70
2023-05-22T06:28:54.636Z,78.80
2023-05-22T06:31:24.405Z,76.80
2023-05-22T06:33:52.490Z,74.20
2023-05-22T06:36:20.368Z,71.60
2023-05-22T06:38:50.396Z,69.20
2023-05-22T06:41:18.266Z,65.60
2023-05-22T06:43:46.079Z,64.40
2023-05-22T06:46:14.130Z,63.10
2023-05-22T06:48:42.003Z,61.70
2023-05-22T06:51:11.520Z,62.70
2023-05-22T06:53:39.347Z,62.80
2023-05-22T06:56:08.699Z,62.10
2023-05-22T06:58:36.425Z,61.20
2023-05-22T07:01:04.596Z,61.70
2023-05-22T07:03:32.442Z,60.70
2023-05-22T07:06:00.324Z,59.50
2023-05-22T07:08:30.429Z,58.90
2023-05-22T07:10:58.582Z,59.10
2023-05-22T07:13:31.892Z,58.40
2023-05-22T07:15:59.775Z,57.80
2023-05-22T07:18:27.523Z,57.60
2023-05-22T07:20:55.456Z,56.40
2023-05-22T07:23:24.428Z,55.50
2023-05-22T07:25:53.919Z,55.00
2023-05-22T07:28:21.722Z,54.00
2023-05-22T07:30:51.232Z,53.20
2023-05-22T07:33:19.104Z,52.70
2023-05-22T07:35:47.005Z,52.60
2023-05-22T07:38:14.816Z,52.50
2023-05-22T07:40:42.636Z,51.50
2023-05-22T07:43:10.603Z,50.20
2023-05-22T07:45:39.541Z,50.10
2023-05-22T07:48:09.119Z,49.50
2023-05-22T07:50:36.898Z,50.10
2023-05-22T07:53:06.336Z,49.60
2023-05-22T07:55:34.069Z,50.10
2023-05-22T07:58:04.101Z,49.80
2023-05-22T08:00:32.291Z,49.70
2023-05-22T08:03:02.006Z,49.40
2023-05-22T08:05:33.853Z,49.70
2023-05-22T08:08:04.310Z,49.70
2023-05-22T08:10:52.263Z,49.50
2023-05-22T08:13:25.419Z,49.40
2023-05-22T08:16:00.357Z,49.10
2023-05-22T08:18:31.165Z,48.60
2023-05-22T08:21:02.655Z,48.30
2023-05-22T08:23:32.174Z,46.90
2023-05-22T08:26:01.942Z,46.70
2023-05-22T08:28:31.901Z,45.30
2023-05-22T08:31:01.527Z,45.40
2023-05-22T08:33:31.341Z,45.70
2023-05-22T08:36:02.362Z,46.10
2023-05-22T08:38:32.131Z,45.60
2023-05-22T08:41:01.971Z,45.40
2023-05-22T08:43:32.160Z,44.50
2023-05-22T08:46:06.285Z,44.90
2023-05-22T08:48:36.516Z,44.80
2023-05-22T08:51:09.860Z,44.50
2023-05-22T08:53:40.901Z,43.10
2023-05-22T08:56:11.213Z,43.00
2023-05-22T08:58:39.430Z,43.00
2023-05-22T09:01:07.457Z,42.40
2023-05-22T09:03:37.541Z,42.00
2023-05-22T09:06:09.289Z,43.40
2023-05-22T09:08:38.257Z,43.40
2023-05-22T09:11:06.132Z,42.70
2023-05-22T09:13:33.958Z,41.90
2023-05-22T09:16:09.473Z,41.40
2023-05-22T09:18:38.305Z,40.20
2023-05-22T09:21:18.129Z,39.70
2023-05-22T09:23:51.041Z,39.80
2023-05-22T09:26:19.216Z,39.20
2023-05-22T09:28:48.607Z,39.20
2023-05-22T09:31:16.383Z,38.60
2023-05-22T09:33:46.090Z,39.40
2023-05-22T09:36:15.268Z,40.50
2023-05-22T09:38:43.197Z,41.40
2023-05-22T09:41:11.003Z,41.90
2023-05-22T09:43:38.730Z,42.00
2023-05-22T09:46:06.765Z,42.60
2023-05-22T09:48:36.378Z,41.40
2023-05-22T09:51:05.109Z,40.60
2023-05-22T09:53:34.646Z,40.40
2023-05-22T09:56:06.441Z,40.40
2023-05-22T09:58:36.564Z,40.70
2023-05-22T10:01:06.349Z,40.50
2023-05-22T10:03:35.826Z,40.60
2023-05-22T10:06:04.651Z,39.60
2023-05-22T10:08:43.097Z,39.20
2023-05-22T10:11:12.023Z,39.80
2023-05-22T10:13:42.120Z,40.10
2023-05-22T10:16:12.034Z,40.10
2023-05-22T10:18:40.373Z,40.50
2023-05-22T10:21:08.233Z,40.60
2023-05-22T10:23:36.192Z,41.00
2023-05-22T10:26:06.386Z,41.80
2023-05-22T10:28:38.379Z,42.00
2023-05-22T10:31:12.620Z,42.70
2023-05-22T10:33:45.777Z,42.70
2023-05-22T10:36:21.287Z,43.00
2023-05-22T10:39:04.221Z,43.80
2023-05-22T10:41:34.692Z,44.20
2023-05-22T10:44:04.190Z,43.60
2023-05-22T10:46:34.648Z,43.50
2023-05-22T10:49:02.615Z,44.90
2023-05-22T10:51:30.811Z,45.70
2023-05-22T10:54:00.899Z,46.20
2023-05-22T10:56:36.793Z,45.80
2023-05-22T10:59:07.311Z,46.10
2023-05-22T11:01:37.858Z,45.80
2023-05-22T11:04:12.676Z,45.70
2023-05-22T11:06:42.264Z,45.50
2023-05-22T11:09:20.240Z,45.40
2023-05-22T11:12:10.101Z,45.50
2023-05-22T11:14:38.047Z,45.50
2023-05-22T11:17:06.755Z,43.80
2023-05-22T11:19:34.818Z,44.30
2023-05-22T11:22:04.212Z,43.80
2023-05-22T11:24:33.987Z,42.50
2023-05-22T11:27:06.053Z,42.10
2023-05-22T11:29:34.171Z,41.70
2023-05-22T11:32:02.911Z,41.60
2023-05-22T11:34:30.970Z,40.70
2023-05-22T11:36:59.675Z,40.90
2023-05-22T11:39:27.820Z,41.00
2023-05-22T11:41:55.981Z,40.40
2023-05-22T11:44:27.617Z,39.80
2023-05-22T11:46:55.649Z,39.50
2023-05-22T11:49:25.215Z,37.80
2023-05-22T11:51:53.219Z,38.20
2023-05-22T11:54:22.149Z,39.20
2023-05-22T11:56:49.989Z,39.90
2023-05-22T11:59:17.772Z,39.00
2023-05-22T12:01:50.006Z,39.20
2023-05-22T12:04:17.976Z,38.00
2023-05-22T12:06:46.103Z,38.60
2023-05-22T12:09:14.064Z,39.50
2023-05-22T12:11:47.020Z,39.30
2023-05-22T12:14:14.829Z,39.20
2023-05-22T12:16:44.396Z,39.40
2023-05-22T12:19:14.057Z,37.80
2023-05-22T12:21:42.650Z,37.80
2023-05-22T12:24:10.872Z,38.10
2023-05-22T12:26:38.856Z,36.80
2023-05-22T12:29:06.671Z,35.40
2023-05-22T12:31:38.492Z,36.30
2023-05-22T12:34:08.631Z,37.60
2023-05-22T12:36:40.649Z,38.60
2023-05-22T12:39:10.165Z,38.00
2023-05-22T12:41:37.968Z,38.30
2023-05-22T12:44:06.126Z,38.80
2023-05-22T12:46:34.585Z,38.90
2023-05-22T12:49:02.757Z,38.80
2023-05-22T12:51:32.622Z,38.80
2023-05-22T12:54:02.392Z,39.50
2023-05-22T12:56:30.449Z,39.40
2023-05-22T12:58:58.661Z,39.70
2023-05-22T13:01:27.172Z,39.80
2023-05-22T13:03:55.055Z,40.20
2023-05-22T13:06:22.808Z,40.10
2023-05-22T13:08:50.656Z,41.10
2023-05-22T13:11:20.079Z,41.10
2023-05-22T13:13:47.911Z,41.30
2023-05-22T13:16:15.771Z,42.20
2023-05-22T13:18:43.591Z,43.00
2023-05-22T13:21:12.603Z,42.70
2023-05-22T13:23:40.401Z,42.10
2023-05-22T13:26:08.531Z,41.70
2023-05-22T13:28:37.682Z,40.60
2023-05-22T13:31:05.562Z,39.60
2023-05-22T13:33:33.335Z,39.10
2023-05-22T13:36:01.196Z,38.90
2023-05-22T13:38:28.992Z,39.00
2023-05-22T13:40:56.831Z,37.50
2023-05-22T13:43:25.104Z,37.30
2023-05-22T13:45:54.280Z,36.70
2023-05-22T13:48:22.204Z,36.60
2023-05-22T13:50:49.993Z,37.10
2023-05-22T13:53:17.820Z,36.20
2023-05-22T13:55:46.044Z,35.90
2023-05-22T13:58:13.894Z,36.70
2023-05-22T14:00:41.716Z,37.50
2023-05-22T14:03:11.709Z,36.40
2023-05-22T14:05:39.751Z,35.60
2023-05-22T14:08:07.718Z,35.40
2023-05-22T14:10:35.809Z,36.10
2023-05-22T14:13:04.273Z,35.20
2023-05-22T14:15:32.207Z,36.20
2023-05-22T14:18:00.002Z,36.30
2023-05-22T14:20:29.207Z,37.60
2023-05-22T14:22:58.452Z,37.60
2023-05-22T14:25:26.565Z,37.20
2023-05-22T14:27:54.379Z,36.90
2023-05-22T14:30:22.218Z,36.50
2023-05-22T14:32:50.181Z,36.70
2023-05-22T14:35:18.879Z,37.30
2023-05-22T14:37:48.019Z,37.60
2023-05-22T14:40:16.157Z,38.50
2023-05-22T14:42:44.174Z,39.40
2023-05-22T14:45:12.682Z,40.20
2023-05-22T14:47:42.368Z,40.90
2023-05-22T14:50:18.861Z,41.20
2023-05-22T14:52:48.912Z,40.80
2023-05-22T14:55:17.513Z,41.90
2023-05-22T14:57:45.663Z,42.90
2023-05-22T15:00:15.152Z,43.00
2023-05-22T15:02:43.056Z,42.60
2023-05-22T15:05:11.251Z,42.90
2023-05-22T15:07:44.730Z,44.00
2023-05-22T15:10:15.434Z,44.90
2023-05-22T15:12:43.410Z,45.60
2023-05-22T15:15:12.119Z,45.60
2023-05-22T15:17:42.594Z,45.90
2023-05-22T15:20:11.935Z,46.00
2023-05-22T15:22:39.897Z,45.70
2023-05-22T15:25:09.504Z,45.50
2023-05-22T15:27:40.305Z,45.60
2023-05-22T15:30:11.298Z,45.90
2023-05-22T15:32:39.596Z,46.50
2023-05-22T15:35:08.983Z,45.90
2023-05-22T15:37:37.003Z,45.90
2023-05-22T15:40:06.476Z,46.10
2023-05-22T15:42:34.295Z,46.50
2023-05-22T15:45:03.432Z,46.70
2023-05-22T15:47:31.301Z,46.90
2023-05-22T15:49:59.170Z,48.00
2023-05-22T15:52:26.940Z,49.00
2023-05-22T15:54:56.905Z,49.80
2023-05-22T15:57:25.030Z,50.40
2023-05-22T15:59:52.780Z,50.80
2023-05-22T16:02:21.930Z,51.20
2023-05-22T16:04:50.659Z,51.90
2023-05-22T16:07:20.017Z,52.80
2023-05-22T16:09:50.066Z,53.10
2023-05-22T16:12:19.324Z,53.60
2023-05-22T16:14:47.417Z,53.50
2023-05-22T16:17:15.222Z,54.00
2023-05-22T16:19:44.338Z,54.10
2023-05-22T16:22:12.556Z,54.50
2023-05-22T16:24:40.457Z,55.00
2023-05-22T16:27:08.425Z,55.20
2023-05-22T16:29:36.383Z,55.60
2023-05-22T16:32:04.568Z,55.90
2023-05-22T16:34:33.778Z,56.40
2023-05-22T16:37:03.232Z,56.10
2023-05-22T16:39:31.222Z,56.90
2023-05-22T16:41:59.056Z,56.80
2023-05-22T16:44:27.681Z,57.20
2023-05-22T16:46:55.770Z,56.80
2023-05-22T16:49:23.760Z,56.70
2023-05-22T16:51:51.653Z,57.00
2023-05-22T16:54:21.455Z,57.00
2023-05-22T16:56:49.251Z,56.60
2023-05-22T16:59:17.380Z,55.60
2023-05-22T17:01:45.363Z,55.30
2023-05-22T17:04:15.649Z,55.30
2023-05-22T17:06:43.857Z,55.70
2023-05-22T17:09:11.711Z,56.30
2023-05-22T17:11:40.806Z,56.60
2023-05-22T17:14:08.628Z,56.80
2023-05-22T17:16:37.732Z,57.20
2023-05-22T17:19:06.313Z,57.20
2023-05-22T17:21:34.210Z,57.20
2023-05-22T17:24:01.976Z,57.20
2023-05-22T17:26:29.875Z,56.60
2023-05-22T17:28:58.976Z,56.80
2023-05-22T17:31:27.121Z,56.70
2023-05-22T17:33:55.019Z,57.00
2023-05-22T17:36:22.861Z,57.70
2023-05-22T17:38:50.674Z,58.90
2023-05-22T17:41:18.541Z,59.50
2023-05-22T17:43:46.593Z,59.80
2023-05-22T17:46:15.854Z,60.00
2023-05-22T17:48:43.734Z,60.20
2023-05-22T17:51:11.544Z,60.10
2023-05-22T17:53:39.446Z,60.40
2023-05-22T17:56:07.742Z,60.50
2023-05-22T17:58:35.577Z,61.60
2023-05-22T18:01:03.457Z,63.40
2023-05-22T18:03:32.805Z,65.40
2023-05-22T18:06:00.766Z,67.00
2023-05-22T18:08:28.757Z,67.90
2023-05-22T18:10:58.042Z,69.30
2023-05-22T18:13:25.872Z,71.60
2023-05-22T18:15:54.424Z,72.10
2023-05-22T18:18:22.790Z,72.80
2023-05-22T18:20:52.264Z,75.50
2023-05-22T18:23:20.650Z,78.10
2023-05-22T18:25:48.480Z,82.10
2023-05-22T18:28:16.324Z,81.90
2023-05-22T18:30:45.555Z,82.50
2023-05-22T18:33:13.519Z,83.50
2023-05-22T18:35:41.362Z,84.10
2023-05-22T18:38:10.579Z,83.40
2023-05-22T18:40:38.768Z,82.10
2023-05-22T18:43:07.371Z,81.70
2023-05-22T18:45:35.137Z,81.80
2023-05-22T18:48:03.084Z,81.00
2023-05-22T18:50:31.049Z,81.70
2023-05-22T18:52:58.789Z,82.10
2023-05-22T18:55:28.275Z,81.80
2023-05-22T18:57:56.299Z,81.70
2023-05-22T19:00:25.275Z,82.10
2023-05-22T19:02:53.206Z,82.00
2023-05-22T19:05:21.511Z,82.60
2023-05-22T19:07:49.717Z,84.00
2023-05-22T19:10:17.856Z,85.60
2023-05-22T19:12:47.041Z,87.50
2023-05-22T19:15:14.943Z,87.60
2023-05-22T19:17:42.796Z,87.80
2023-05-22T19:20:11.384Z,88.20
2023-05-22T19:22:39.226Z,88.90
2023-05-22T19:25:07.581Z,89.60
2023-05-22T19:27:37.317Z,90.00
2023-05-22T19:30:09.645Z,90.20
2023-05-22T19:32:37.787Z,90.40
2023-05-22T19:35:06.422Z,90.50
2023-05-22T19:37:34.193Z,90.70
2023-05-22T19:40:02.052Z,90.90
2023-05-22T19:42:30.039Z,91.40
2023-05-22T19:44:57.974Z,91.70
2023-05-22T19:47:27.239Z,92.00
2023-05-22T19:49:55.143Z,92.10
2023-05-22T19:52:22.966Z,92.10
2023-05-22T19:54:50.803Z,92.10
2023-05-22T19:57:19.655Z,92.40
2023-05-22T19:59:47.519Z,92.40
2023-05-22T20:02:15.470Z,92.40
2023-05-22T20:04:48.337Z,92.60
2023-05-22T20:07:16.500Z,92.90
2023-05-22T20:09:44.312Z,93.50
2023-05-22T20:12:12.179Z,94.20
2023-05-22T20:14:39.982Z,94.60
2023-05-22T20:17:08.080Z,94.40
2023-05-22T20:19:36.309Z,94.60
2023-05-22T20:22:06.134Z,94.60
2023-05-22T20:24:35.524Z,94.60
2023-05-22T20:27:05.080Z,95.00
2023-05-22T20:29:33.048Z,95.20
2023-05-22T20:32:01.036Z,95.30
2023-05-22T20:34:28.958Z,95.10
2023-05-22T20:36:58.308Z,95.10
2023-05-22T20:39:28.161Z,95.00
2023-05-22T20:41:56.022Z,95.10
2023-05-22T20:44:24.801Z,95.20
2023-05-22T20:46:52.989Z,95.10
2023-05-22T20:49:21.304Z,95.50
2023-05-22T20:51:49.961Z,96.10
2023-05-22T20:54:18.388Z,96.40
2023-05-22T20:56:47.673Z,97.10
2023-05-22T20:59:15.635Z,97.50
2023-05-22T21:01:43.713Z,97.90
2023-05-22T21:04:11.717Z,98.00
2023-05-22T21:06:40.322Z,98.40
2023-05-22T21:09:08.285Z,98.40
2023-05-22T21:11:36.420Z,98.50
2023-05-22T21:14:06.079Z,98.80
2023-05-22T21:16:36.399Z,99.10
2023-05-22T21:19:07.466Z,99.70
2023-05-22T21:21:36.660Z,99.90
2023-05-22T21:24:04.585Z,99.90
2023-05-22T21:26:32.519Z,99.90
2023-05-22T21:29:00.391Z,99.90
2023-05-22T21:31:29.735Z,99.90
2023-05-22T21:33:57.645Z,99.90
2023-05-22T21:36:25.998Z,99.90
2023-05-22T21:38:56.325Z,99.90
2023-05-22T21:41:24.154Z,99.90
2023-05-22T21:43:51.966Z,99.90
2023-05-22T21:46:22.444Z,99.90
2023-05-22T21:48:51.696Z,99.90
2023-05-22T21:51:19.550Z,99.90
2023-05-22T21:53:47.571Z,99.90
2023-05-22T21:56:15.489Z,99.90
2023-05-22T21:58:43.300Z,99.90
2023-05-22T22:01:11.339Z,99.90
2023-05-22T22:03:39.618Z,99.90
2023-05-22T22:06:09.310Z,99.90
2023-05-22T22:08:37.090Z,99.90
2023-05-22T22:11:04.969Z,99.90
2023-05-22T22:13:32.778Z,99.90
2023-05-22T22:16:00.604Z,99.90
2023-05-22T22:18:28.451Z,99.90
2023-05-22T22:20:56.355Z,99.90
2023-05-22T22:23:26.006Z,99.90
2023-05-22T22:25:53.814Z,99.90
2023-05-22T22:28:21.600Z,99.90
2023-05-22T22:30:49.358Z,99.90
2023-05-22T22:33:17.782Z,99.90
2023-05-22T22:35:45.863Z,99.90
2023-05-22T22:38:13.611Z,99.90
2023-05-22T22:40:42.980Z,99.90
2023-05-22T22:43:11.221Z,99.90
2023-05-22T22:45:39.841Z,99.90
2023-05-22T22:48:08.027Z,99.90
2023-05-22T22:50:35.883Z,99.90
2023-05-22T22:53:03.638Z,99.90
2023-05-22T22:55:31.462Z,99.90
2023-05-22T22:58:01.822Z,99.90
2023-05-22T23:00:29.600Z,99.90
2023-05-22T23:02:57.441Z,99.90
2023-05-22T23:05:25.380Z,99.90
2023-05-22T23:07:53.257Z,99.90
2023-05-22T23:10:21.948Z,99.90
2023-05-22T23:12:50.139Z,99.90
2023-05-22T23:15:19.458Z,99.90
2023-05-22T23:20:15.079Z,99.90
2023-05-22T23:22:43.138Z,99.90
2023-05-22T23:25:11.593Z,99.90
2023-05-22T23:27:39.452Z,99.90
2023-05-22T23:30:09.290Z,99.90
2023-05-22T23:32:38.458Z,99.90
2023-05-22T23:35:07.332Z,99.90
2023-05-22T23:37:35.128Z,99.90
2023-05-22T23:40:02.926Z,99.90
2023-05-22T23:42:30.728Z,99.90
2023-05-22T23:44:58.461Z,99.90
2023-05-22T23:47:26.429Z,99.90
2023-05-22T23:49:56.640Z,99.90
2023-05-22T23:52:24.493Z,99.90
2023-05-22T23:54:52.284Z,99.90
2023-05-22T23:57:20.033Z,99.90
2023-05-22T23:59:47.802Z,99.90
